sensor_id;sensor_type;location;lat;lon;timestamp;pressure;altitude;pressure_sealevel;temperature;humidity
45357;BME280;31092;51.924;21.448;2024-03-08T00:02:00;100789.19;;;-5.11;100.00
45357;BME280;31092;51.924;21.448;2024-03-08T00:04:25;100780.72;;;-5.19;100.00
45357;BME280;31092;51.924;21.448;2024-03-08T00:06:50;100782.53;;;-5.21;100.00
45357;BME280;31092;51.924;21.448;2024-03-08T00:09:16;100811.25;;;-5.16;100.00
45357;BME280;31092;51.924;21.448;2024-03-08T00:11:41;100785.44;;;-5.30;100.00
45357;BME280;31092;51.924;21.448;2024-03-08T00:14:07;100777.34;;;-5.22;100.00
45357;BME280;31092;51.924;21.448;2024-03-08T00:16:33;100672.50;;;-5.79;100.00
45357;BME280;31092;51.924;21.448;2024-03-08T00:18:59;100784.78;;;-5.10;100.00
45357;BME280;31092;51.924;21.448;2024-03-08T00:21:25;100766.78;;;-5.21;100.00
45357;BME280;31092;51.924;21.448;2024-03-08T00:23:52;100781.78;;;-5.24;100.00
45357;BME280;31092;51.924;21.448;2024-03-08T00:26:19;100726.13;;;-5.61;100.00
45357;BME280;31092;51.924;21.448;2024-03-08T00:28:45;100745.91;;;-5.50;100.00
45357;BME280;31092;51.924;21.448;2024-03-08T00:31:10;100753.44;;;-5.40;100.00
45357;BME280;31092;51.924;21.448;2024-03-08T00:33:36;100768.94;;;-5.34;100.00
45357;BME280;31092;51.924;21.448;2024-03-08T00:36:02;100787.13;;;-5.27;100.00
45357;BME280;31092;51.924;21.448;2024-03-08T00:38:27;100663.78;;;-6.04;100.00
45357;BME280;31092;51.924;21.448;2024-03-08T00:40:53;100751.28;;;-5.55;100.00
45357;BME280;31092;51.924;21.448;2024-03-08T00:43:18;100675.63;;;-5.92;100.00
45357;BME280;31092;51.924;21.448;2024-03-08T00:45:44;100635.13;;;-6.10;100.00
45357;BME280;31092;51.924;21.448;2024-03-08T00:48:09;100750.03;;;-5.43;100.00
45357;BME280;31092;51.924;21.448;2024-03-08T00:50:36;100745.06;;;-5.51;100.00
45357;BME280;31092;51.924;21.448;2024-03-08T00:53:02;100730.63;;;-5.64;100.00
45357;BME280;31092;51.924;21.448;2024-03-08T00:55:27;100733.16;;;-5.61;100.00
45357;BME280;31092;51.924;21.448;2024-03-08T00:57:54;100741.88;;;-5.61;100.00
45357;BME280;31092;51.924;21.448;2024-03-08T01:00:20;100784.75;;;-5.35;100.00
45357;BME280;31092;51.924;21.448;2024-03-08T01:02:46;100783.09;;;-5.38;100.00
45357;BME280;31092;51.924;21.448;2024-03-08T01:05:13;100782.41;;;-5.43;100.00
45357;BME280;31092;51.924;21.448;2024-03-08T01:07:38;100733.41;;;-5.69;100.00
45357;BME280;31092;51.924;21.448;2024-03-08T01:10:04;100619.53;;;-6.41;100.00
45357;BME280;31092;51.924;21.448;2024-03-08T01:12:34;100742.03;;;-5.65;100.00
45357;BME280;31092;51.924;21.448;2024-03-08T01:15:00;100775.69;;;-5.51;100.00
45357;BME280;31092;51.924;21.448;2024-03-08T01:17:26;100695.84;;;-5.96;100.00
45357;BME280;31092;51.924;21.448;2024-03-08T01:19:52;100709.41;;;-5.83;100.00
45357;BME280;31092;51.924;21.448;2024-03-08T01:22:18;100749.69;;;-5.59;100.00
45357;BME280;31092;51.924;21.448;2024-03-08T01:24:44;100726.91;;;-5.59;100.00
45357;BME280;31092;51.924;21.448;2024-03-08T01:27:09;100721.63;;;-5.57;100.00
45357;BME280;31092;51.924;21.448;2024-03-08T01:29:35;100565.78;;;-6.55;100.00
45357;BME280;31092;51.924;21.448;2024-03-08T01:32:00;100685.34;;;-5.96;100.00
45357;BME280;31092;51.924;21.448;2024-03-08T01:34:27;100737.94;;;-5.74;100.00
45357;BME280;31092;51.924;21.448;2024-03-08T01:36:54;100720.75;;;-5.83;100.00
45357;BME280;31092;51.924;21.448;2024-03-08T01:39:21;100709.63;;;-5.91;100.00
45357;BME280;31092;51.924;21.448;2024-03-08T01:41:47;100700.25;;;-5.96;100.00
45357;BME280;31092;51.924;21.448;2024-03-08T01:44:13;100625.34;;;-6.32;100.00
45357;BME280;31092;51.924;21.448;2024-03-08T01:46:44;100720.13;;;-5.64;100.00
45357;BME280;31092;51.924;21.448;2024-03-08T01:49:10;100597.72;;;-6.42;100.00
45357;BME280;31092;51.924;21.448;2024-03-08T01:51:37;100729.88;;;-5.68;100.00
45357;BME280;31092;51.924;21.448;2024-03-08T01:54:04;100754.25;;;-5.64;100.00
45357;BME280;31092;51.924;21.448;2024-03-08T01:56:30;100752.00;;;-5.77;100.00
45357;BME280;31092;51.924;21.448;2024-03-08T01:58:57;100720.28;;;-5.94;100.00
45357;BME280;31092;51.924;21.448;2024-03-08T02:01:24;100701.44;;;-6.07;100.00
45357;BME280;31092;51.924;21.448;2024-03-08T02:03:50;100628.03;;;-6.61;100.00
45357;BME280;31092;51.924;21.448;2024-03-08T02:06:16;100731.88;;;-6.01;100.00
45357;BME280;31092;51.924;21.448;2024-03-08T02:08:43;100633.81;;;-6.52;100.00
45357;BME280;31092;51.924;21.448;2024-03-08T02:11:11;100597.56;;;-6.64;100.00
45357;BME280;31092;51.924;21.448;2024-03-08T02:13:37;100701.25;;;-6.00;100.00
45357;BME280;31092;51.924;21.448;2024-03-08T02:16:03;100717.47;;;-5.89;100.00
45357;BME280;31092;51.924;21.448;2024-03-08T02:18:30;100713.34;;;-5.96;100.00
45357;BME280;31092;51.924;21.448;2024-03-08T02:20:57;100604.50;;;-6.63;100.00
45357;BME280;31092;51.924;21.448;2024-03-08T02:23:23;100668.31;;;-6.37;100.00
45357;BME280;31092;51.924;21.448;2024-03-08T02:25:52;100587.69;;;-6.84;100.00
45357;BME280;31092;51.924;21.448;2024-03-08T02:28:18;100729.88;;;-5.94;100.00
45357;BME280;31092;51.924;21.448;2024-03-08T02:30:45;100577.94;;;-6.79;100.00
45357;BME280;31092;51.924;21.448;2024-03-08T02:33:13;100572.53;;;-6.74;100.00
45357;BME280;31092;51.924;21.448;2024-03-08T02:35:45;100632.81;;;-6.47;100.00
45357;BME280;31092;51.924;21.448;2024-03-08T02:38:12;100580.16;;;-6.94;100.00
45357;BME280;31092;51.924;21.448;2024-03-08T02:40:38;100577.69;;;-6.99;100.00
45357;BME280;31092;51.924;21.448;2024-03-08T02:43:04;100700.41;;;-6.29;100.00
45357;BME280;31092;51.924;21.448;2024-03-08T02:45:30;100610.63;;;-6.92;100.00
45357;BME280;31092;51.924;21.448;2024-03-08T02:47:56;100735.72;;;-6.13;100.00
45357;BME280;31092;51.924;21.448;2024-03-08T02:50:21;100708.94;;;-6.22;100.00
45357;BME280;31092;51.924;21.448;2024-03-08T02:52:48;100706.25;;;-6.21;100.00
45357;BME280;31092;51.924;21.448;2024-03-08T02:55:13;100690.72;;;-6.27;100.00
45357;BME280;31092;51.924;21.448;2024-03-08T02:57:42;100690.19;;;-6.10;100.00
45357;BME280;31092;51.924;21.448;2024-03-08T03:00:13;100650.94;;;-6.40;100.00
45357;BME280;31092;51.924;21.448;2024-03-08T03:02:38;100606.34;;;-6.66;100.00
45357;BME280;31092;51.924;21.448;2024-03-08T03:05:05;100658.69;;;-6.37;100.00
45357;BME280;31092;51.924;21.448;2024-03-08T03:07:34;100698.47;;;-6.22;100.00
45357;BME280;31092;51.924;21.448;2024-03-08T03:10:00;100663.63;;;-6.54;100.00
45357;BME280;31092;51.924;21.448;2024-03-08T03:12:27;100472.28;;;-7.62;100.00
45357;BME280;31092;51.924;21.448;2024-03-08T03:14:53;100681.84;;;-6.51;100.00
45357;BME280;31092;51.924;21.448;2024-03-08T03:17:19;100672.44;;;-6.57;100.00
45357;BME280;31092;51.924;21.448;2024-03-08T03:19:45;100591.94;;;-7.08;100.00
45357;BME280;31092;51.924;21.448;2024-03-08T03:22:12;100578.00;;;-7.10;100.00
45357;BME280;31092;51.924;21.448;2024-03-08T03:24:38;100589.84;;;-6.96;100.00
45357;BME280;31092;51.924;21.448;2024-03-08T03:27:07;100638.09;;;-6.76;100.00
45357;BME280;31092;51.924;21.448;2024-03-08T03:29:39;100678.47;;;-6.55;100.00
45357;BME280;31092;51.924;21.448;2024-03-08T03:32:08;100701.88;;;-6.48;100.00
45357;BME280;31092;51.924;21.448;2024-03-08T03:34:34;100498.50;;;-7.65;100.00
45357;BME280;31092;51.924;21.448;2024-03-08T03:37:03;100689.94;;;-6.59;100.00
45357;BME280;31092;51.924;21.448;2024-03-08T03:39:29;100700.25;;;-6.53;100.00
45357;BME280;31092;51.924;21.448;2024-03-08T03:41:58;100677.69;;;-6.58;100.00
45357;BME280;31092;51.924;21.448;2024-03-08T03:44:24;100571.31;;;-7.18;100.00
45357;BME280;31092;51.924;21.448;2024-03-08T03:46:49;100645.97;;;-6.77;100.00
45357;BME280;31092;51.924;21.448;2024-03-08T03:49:16;100484.88;;;-7.75;100.00
45357;BME280;31092;51.924;21.448;2024-03-08T03:51:42;100703.56;;;-6.47;100.00
45357;BME280;31092;51.924;21.448;2024-03-08T03:54:08;100556.81;;;-7.30;100.00
45357;BME280;31092;51.924;21.448;2024-03-08T03:56:33;100705.09;;;-6.40;100.00
45357;BME280;31092;51.924;21.448;2024-03-08T03:58:59;100479.34;;;-7.65;100.00
45357;BME280;31092;51.924;21.448;2024-03-08T04:01:24;100665.25;;;-6.50;100.00
45357;BME280;31092;51.924;21.448;2024-03-08T04:03:50;100662.53;;;-6.47;100.00
45357;BME280;31092;51.924;21.448;2024-03-08T04:06:15;100653.84;;;-6.49;100.00
45357;BME280;31092;51.924;21.448;2024-03-08T04:08:40;100674.66;;;-6.44;100.00
45357;BME280;31092;51.924;21.448;2024-03-08T04:11:07;100544.38;;;-7.24;100.00
45357;BME280;31092;51.924;21.448;2024-03-08T04:13:34;100453.91;;;-7.90;100.00
45357;BME280;31092;51.924;21.448;2024-03-08T04:15:59;100686.25;;;-6.52;100.00
45357;BME280;31092;51.924;21.448;2024-03-08T04:18:25;100677.69;;;-6.58;100.00
45357;BME280;31092;51.924;21.448;2024-03-08T04:20:51;100678.38;;;-6.52;100.00
45357;BME280;31092;51.924;21.448;2024-03-08T04:23:16;100673.19;;;-6.53;100.00
45357;BME280;31092;51.924;21.448;2024-03-08T04:25:43;100473.25;;;-7.66;100.00
45357;BME280;31092;51.924;21.448;2024-03-08T04:28:09;100570.38;;;-7.17;100.00
45357;BME280;31092;51.924;21.448;2024-03-08T04:30:40;100655.53;;;-6.76;100.00
45357;BME280;31092;51.924;21.448;2024-03-08T04:33:05;100705.66;;;-6.57;100.00
45357;BME280;31092;51.924;21.448;2024-03-08T04:35:34;100600.75;;;-7.12;100.00
45357;BME280;31092;51.924;21.448;2024-03-08T04:37:59;100574.34;;;-7.34;100.00
45357;BME280;31092;51.924;21.448;2024-03-08T04:40:25;100690.19;;;-6.66;100.00
45357;BME280;31092;51.924;21.448;2024-03-08T04:42:51;100671.63;;;-6.88;100.00
45357;BME280;31092;51.924;21.448;2024-03-08T04:45:17;100617.44;;;-7.14;100.00
45357;BME280;31092;51.924;21.448;2024-03-08T04:47:43;100644.00;;;-6.99;100.00
45357;BME280;31092;51.924;21.448;2024-03-08T04:50:08;100609.59;;;-7.16;100.00
45357;BME280;31092;51.924;21.448;2024-03-08T04:52:34;100671.72;;;-6.91;100.00
45357;BME280;31092;51.924;21.448;2024-03-08T04:55:01;100545.00;;;-7.75;100.00
45357;BME280;31092;51.924;21.448;2024-03-08T04:57:29;100679.75;;;-6.97;100.00
45357;BME280;31092;51.924;21.448;2024-03-08T04:59:55;100607.47;;;-7.33;100.00
45357;BME280;31092;51.924;21.448;2024-03-08T05:02:20;100664.00;;;-6.96;100.00
45357;BME280;31092;51.924;21.448;2024-03-08T05:04:48;100636.13;;;-6.97;100.00
45357;BME280;31092;51.924;21.448;2024-03-08T05:07:13;100692.72;;;-6.63;100.00
45357;BME280;31092;51.924;21.448;2024-03-08T05:09:39;100660.00;;;-6.80;100.00
45357;BME280;31092;51.924;21.448;2024-03-08T05:12:06;100609.69;;;-7.19;100.00
45357;BME280;31092;51.924;21.448;2024-03-08T05:14:33;100664.03;;;-6.97;100.00
45357;BME280;31092;51.924;21.448;2024-03-08T05:17:00;100675.50;;;-7.02;100.00
45357;BME280;31092;51.924;21.448;2024-03-08T05:19:26;100595.38;;;-7.37;100.00
45357;BME280;31092;51.924;21.448;2024-03-08T05:21:51;100667.16;;;-6.85;100.00
45357;BME280;31092;51.924;21.448;2024-03-08T05:24:17;100613.94;;;-7.15;100.00
45357;BME280;31092;51.924;21.448;2024-03-08T05:26:43;100640.63;;;-7.02;100.00
45357;BME280;31092;51.924;21.448;2024-03-08T05:29:09;100653.91;;;-6.79;100.00
45357;BME280;31092;51.924;21.448;2024-03-08T05:31:51;100669.19;;;-6.65;100.00
45357;BME280;31092;51.924;21.448;2024-03-08T05:34:18;100699.56;;;-6.59;100.00
45357;BME280;31092;51.924;21.448;2024-03-08T05:36:45;100621.94;;;-6.90;100.00
45357;BME280;31092;51.924;21.448;2024-03-08T05:39:12;100574.41;;;-7.06;100.00
45357;BME280;31092;51.924;21.448;2024-03-08T05:41:38;100556.81;;;-7.01;100.00
45357;BME280;31092;51.924;21.448;2024-03-08T05:44:06;100464.88;;;-7.48;100.00
45357;BME280;31092;51.924;21.448;2024-03-08T05:46:33;100663.28;;;-6.15;100.00
45357;BME280;31092;51.924;21.448;2024-03-08T05:48:59;100644.59;;;-6.33;100.00
45357;BME280;31092;51.924;21.448;2024-03-08T05:51:25;100631.38;;;-6.30;100.00
45357;BME280;31092;51.924;21.448;2024-03-08T05:53:53;100633.69;;;-6.19;100.00
45357;BME280;31092;51.924;21.448;2024-03-08T05:56:22;100617.13;;;-6.21;100.00
45357;BME280;31092;51.924;21.448;2024-03-08T05:58:50;100636.28;;;-5.92;100.00
45357;BME280;31092;51.924;21.448;2024-03-08T06:01:16;100642.91;;;-5.82;100.00
45357;BME280;31092;51.924;21.448;2024-03-08T06:03:41;100654.56;;;-5.66;100.00
45357;BME280;31092;51.924;21.448;2024-03-08T06:06:13;100627.81;;;-5.75;100.00
45357;BME280;31092;51.924;21.448;2024-03-08T06:08:39;100613.84;;;-5.76;100.00
45357;BME280;31092;51.924;21.448;2024-03-08T06:11:05;100532.28;;;-6.18;100.00
45357;BME280;31092;51.924;21.448;2024-03-08T06:13:34;100636.63;;;-5.53;100.00
45357;BME280;31092;51.924;21.448;2024-03-08T06:16:00;100613.84;;;-5.53;100.00
45357;BME280;31092;51.924;21.448;2024-03-08T06:18:38;100623.75;;;-5.36;100.00
45357;BME280;31092;51.924;21.448;2024-03-08T06:21:07;100626.91;;;-5.26;100.00
45357;BME280;31092;51.924;21.448;2024-03-08T06:23:33;100599.59;;;-5.45;100.00
45357;BME280;31092;51.924;21.448;2024-03-08T06:25:58;100623.09;;;-5.17;100.00
45357;BME280;31092;51.924;21.448;2024-03-08T06:28:24;100624.28;;;-5.02;100.00
45357;BME280;31092;51.924;21.448;2024-03-08T06:30:49;100651.63;;;-4.85;100.00
45357;BME280;31092;51.924;21.448;2024-03-08T06:33:17;100622.78;;;-4.86;100.00
45357;BME280;31092;51.924;21.448;2024-03-08T06:35:42;100606.66;;;-4.77;100.00
45357;BME280;31092;51.924;21.448;2024-03-08T06:38:08;100634.38;;;-4.46;100.00
45357;BME280;31092;51.924;21.448;2024-03-08T06:40:33;100614.31;;;-4.49;100.00
45357;BME280;31092;51.924;21.448;2024-03-08T06:42:59;100593.28;;;-4.49;100.00
45357;BME280;31092;51.924;21.448;2024-03-08T06:45:24;100501.00;;;-4.85;100.00
45357;BME280;31092;51.924;21.448;2024-03-08T06:47:51;100599.41;;;-4.06;100.00
45357;BME280;31092;51.924;21.448;2024-03-08T06:50:16;100496.31;;;-4.57;100.00
45357;BME280;31092;51.924;21.448;2024-03-08T06:52:42;100489.44;;;-4.39;100.00
45357;BME280;31092;51.924;21.448;2024-03-08T06:55:08;100517.72;;;-4.03;100.00
45357;BME280;31092;51.924;21.448;2024-03-08T06:57:40;100513.63;;;-3.90;100.00
45357;BME280;31092;51.924;21.448;2024-03-08T07:00:07;100551.06;;;-3.44;100.00
45357;BME280;31092;51.924;21.448;2024-03-08T07:02:35;100569.25;;;-3.19;100.00
45357;BME280;31092;51.924;21.448;2024-03-08T07:05:01;100445.59;;;-3.78;100.00
45357;BME280;31092;51.924;21.448;2024-03-08T07:07:27;100510.59;;;-3.22;100.00
45357;BME280;31092;51.924;21.448;2024-03-08T07:09:52;100500.81;;;-3.20;100.00
45357;BME280;31092;51.924;21.448;2024-03-08T07:12:17;100552.03;;;-2.71;100.00
45357;BME280;31092;51.924;21.448;2024-03-08T07:14:43;100408.72;;;-3.41;100.00
45357;BME280;31092;51.924;21.448;2024-03-08T07:17:11;100568.72;;;-2.34;100.00
45357;BME280;31092;51.924;21.448;2024-03-08T07:19:37;100560.19;;;-2.22;100.00
45357;BME280;31092;51.924;21.448;2024-03-08T07:22:04;100526.19;;;-2.28;100.00
45357;BME280;31092;51.924;21.448;2024-03-08T07:24:30;100478.19;;;-2.34;100.00
45357;BME280;31092;51.924;21.448;2024-03-08T07:27:21;100532.16;;;-1.89;100.00
45357;BME280;31092;51.924;21.448;2024-03-08T07:29:46;100425.25;;;-2.31;100.00
45357;BME280;31092;51.924;21.448;2024-03-08T07:32:13;100410.03;;;-2.26;100.00
45357;BME280;31092;51.924;21.448;2024-03-08T07:34:48;100387.41;;;-2.14;100.00
45357;BME280;31092;51.924;21.448;2024-03-08T07:37:16;100492.59;;;-1.40;100.00
45357;BME280;31092;51.924;21.448;2024-03-08T07:39:41;100398.66;;;-1.78;100.00
45357;BME280;31092;51.924;21.448;2024-03-08T07:42:07;100398.75;;;-1.63;100.00
45357;BME280;31092;51.924;21.448;2024-03-08T07:44:32;100382.56;;;-1.57;100.00
45357;BME280;31092;51.924;21.448;2024-03-08T07:46:58;100363.22;;;-1.42;100.00
45357;BME280;31092;51.924;21.448;2024-03-08T07:49:24;100484.38;;;-0.57;100.00
45357;BME280;31092;51.924;21.448;2024-03-08T07:51:50;100474.69;;;-0.42;100.00
45357;BME280;31092;51.924;21.448;2024-03-08T07:54:15;100370.47;;;-0.69;100.00
45357;BME280;31092;51.924;21.448;2024-03-08T07:56:41;100389.53;;;-0.34;100.00
45357;BME280;31092;51.924;21.448;2024-03-08T07:59:07;100429.56;;;0.18;100.00
45357;BME280;31092;51.924;21.448;2024-03-08T08:01:33;100426.47;;;0.53;100.00
45357;BME280;31092;51.924;21.448;2024-03-08T08:03:59;100350.72;;;0.36;100.00
45357;BME280;31092;51.924;21.448;2024-03-08T08:06:24;100420.03;;;0.99;100.00
45357;BME280;31092;51.924;21.448;2024-03-08T08:08:50;100317.81;;;0.80;100.00
45357;BME280;31092;51.924;21.448;2024-03-08T08:11:16;100259.16;;;0.72;100.00
45357;BME280;31092;51.924;21.448;2024-03-08T08:13:41;100409.06;;;1.96;100.00
45357;BME280;31092;51.924;21.448;2024-03-08T08:16:09;100398.72;;;2.29;100.00
45357;BME280;31092;51.924;21.448;2024-03-08T08:18:35;100376.44;;;2.56;100.00
45357;BME280;31092;51.924;21.448;2024-03-08T08:21:02;100249.72;;;2.20;100.00
45357;BME280;31092;51.924;21.448;2024-03-08T08:23:28;100300.94;;;2.94;100.00
45357;BME280;31092;51.924;21.448;2024-03-08T08:25:54;100277.38;;;3.00;100.00
45357;BME280;31092;51.924;21.448;2024-03-08T08:28:20;100365.75;;;3.63;100.00
45357;BME280;31092;51.924;21.448;2024-03-08T08:30:46;100380.47;;;4.02;100.00
45357;BME280;31092;51.924;21.448;2024-03-08T08:33:11;100321.09;;;4.00;100.00
45357;BME280;31092;51.924;21.448;2024-03-08T08:35:38;100338.16;;;4.31;100.00
45357;BME280;31092;51.924;21.448;2024-03-08T08:38:07;100261.13;;;4.06;100.00
45357;BME280;31092;51.924;21.448;2024-03-08T08:40:35;100383.28;;;4.78;100.00
45357;BME280;31092;51.924;21.448;2024-03-08T08:43:02;100271.31;;;4.44;100.00
45357;BME280;31092;51.924;21.448;2024-03-08T08:45:32;100296.75;;;4.92;100.00
45357;BME280;31092;51.924;21.448;2024-03-08T08:47:59;100228.72;;;4.86;100.00
45357;BME280;31092;51.924;21.448;2024-03-08T08:50:25;100399.53;;;5.71;100.00
45357;BME280;31092;51.924;21.448;2024-03-08T08:52:53;100397.03;;;5.80;100.00
45357;BME280;31092;51.924;21.448;2024-03-08T08:55:19;100406.44;;;5.74;100.00
45357;BME280;31092;51.924;21.448;2024-03-08T08:57:50;100425.28;;;6.14;100.00
45357;BME280;31092;51.924;21.448;2024-03-08T09:00:18;100405.44;;;5.54;100.00
45357;BME280;31092;51.924;21.448;2024-03-08T09:02:45;100483.19;;;6.04;100.00
45357;BME280;31092;51.924;21.448;2024-03-08T09:05:10;100505.66;;;6.13;100.00
45357;BME280;31092;51.924;21.448;2024-03-08T09:07:45;100522.63;;;6.23;100.00
45357;BME280;31092;51.924;21.448;2024-03-08T09:10:11;100543.44;;;6.71;100.00
45357;BME280;31092;51.924;21.448;2024-03-08T09:12:38;100457.34;;;6.76;100.00
45357;BME280;31092;51.924;21.448;2024-03-08T09:15:05;100476.88;;;6.97;100.00
45357;BME280;31092;51.924;21.448;2024-03-08T09:17:33;100591.06;;;7.38;100.00
45357;BME280;31092;51.924;21.448;2024-03-08T09:19:59;100609.81;;;7.38;100.00
45357;BME280;31092;51.924;21.448;2024-03-08T09:22:24;100623.25;;;7.48;100.00
45357;BME280;31092;51.924;21.448;2024-03-08T09:24:50;100640.25;;;7.78;100.00
45357;BME280;31092;51.924;21.448;2024-03-08T09:27:16;100654.56;;;7.98;100.00
45357;BME280;31092;51.924;21.448;2024-03-08T09:29:41;100684.78;;;8.09;100.00
45357;BME280;31092;51.924;21.448;2024-03-08T09:32:07;100677.72;;;8.08;100.00
45357;BME280;31092;51.924;21.448;2024-03-08T09:34:32;100668.78;;;7.88;100.00
45357;BME280;31092;51.924;21.448;2024-03-08T09:36:59;100642.97;;;7.37;100.00
45357;BME280;31092;51.924;21.448;2024-03-08T09:39:25;100735.91;;;7.67;100.00
45357;BME280;31092;51.924;21.448;2024-03-08T09:41:50;100764.56;;;7.67;100.00
45357;BME280;31092;51.924;21.448;2024-03-08T09:44:16;100664.56;;;7.46;100.00
45357;BME280;31092;51.924;21.448;2024-03-08T09:46:42;100739.16;;;8.21;100.00
45357;BME280;31092;51.924;21.448;2024-03-08T09:49:08;100686.19;;;8.13;100.00
45357;BME280;31092;51.924;21.448;2024-03-08T09:51:34;100740.22;;;8.49;100.00
45357;BME280;31092;51.924;21.448;2024-03-08T09:54:05;100674.31;;;7.97;100.00
45357;BME280;31092;51.924;21.448;2024-03-08T09:56:35;100770.25;;;8.24;100.00
45357;BME280;31092;51.924;21.448;2024-03-08T09:59:01;100720.44;;;7.40;100.00
45357;BME280;31092;51.924;21.448;2024-03-08T10:01:50;100707.16;;;7.18;100.00
45357;BME280;31092;51.924;21.448;2024-03-08T10:04:17;100638.59;;;7.06;100.00
45357;BME280;31092;51.924;21.448;2024-03-08T10:06:43;100704.09;;;8.03;100.00
45357;BME280;31092;51.924;21.448;2024-03-08T10:09:12;100700.06;;;8.28;100.00
45357;BME280;31092;51.924;21.448;2024-03-08T10:11:37;100697.00;;;8.52;100.00
45357;BME280;31092;51.924;21.448;2024-03-08T10:14:04;100701.38;;;8.73;100.00
45357;BME280;31092;51.924;21.448;2024-03-08T10:16:31;100744.34;;;8.82;100.00
45357;BME280;31092;51.924;21.448;2024-03-08T10:18:57;100743.34;;;8.74;100.00
45357;BME280;31092;51.924;21.448;2024-03-08T10:21:22;100735.59;;;8.61;100.00
45357;BME280;31092;51.924;21.448;2024-03-08T10:23:48;100780.38;;;9.19;100.00
45357;BME280;31092;51.924;21.448;2024-03-08T10:26:16;100713.09;;;8.81;100.00
45357;BME280;31092;51.924;21.448;2024-03-08T10:28:50;100781.50;;;9.26;100.00
45357;BME280;31092;51.924;21.448;2024-03-08T10:31:17;100793.38;;;9.33;100.00
45357;BME280;31092;51.924;21.448;2024-03-08T10:33:43;100732.34;;;8.86;100.00
45357;BME280;31092;51.924;21.448;2024-03-08T10:36:10;100800.44;;;9.34;100.00
45357;BME280;31092;51.924;21.448;2024-03-08T10:38:37;100703.56;;;9.06;100.00
45357;BME280;31092;51.924;21.448;2024-03-08T10:41:05;100793.41;;;9.04;100.00
45357;BME280;31092;51.924;21.448;2024-03-08T10:43:36;100806.94;;;8.63;100.00
45357;BME280;31092;51.924;21.448;2024-03-08T10:46:38;100801.84;;;8.60;100.00
45357;BME280;31092;51.924;21.448;2024-03-08T10:49:12;100697.13;;;8.41;100.00
45357;BME280;31092;51.924;21.448;2024-03-08T10:51:41;100664.47;;;8.36;100.00
45357;BME280;31092;51.924;21.448;2024-03-08T10:54:09;100788.41;;;9.38;100.00
45357;BME280;31092;51.924;21.448;2024-03-08T10:56:35;100771.97;;;9.41;100.00
45357;BME280;31092;51.924;21.448;2024-03-08T10:59:01;100752.63;;;9.28;100.00
45357;BME280;31092;51.924;21.448;2024-03-08T11:01:29;100694.00;;;8.94;100.00
45357;BME280;31092;51.924;21.448;2024-03-08T11:03:55;100771.88;;;9.23;100.00
45357;BME280;31092;51.924;21.448;2024-03-08T11:09:02;100763.22;;;9.76;100.00
45357;BME280;31092;51.924;21.448;2024-03-08T11:11:29;100691.72;;;8.99;100.00
45357;BME280;31092;51.924;21.448;2024-03-08T11:13:56;100691.91;;;8.69;100.00
45357;BME280;31092;51.924;21.448;2024-03-08T11:18:55;100678.75;;;8.46;100.00
45357;BME280;31092;51.924;21.448;2024-03-08T11:21:25;100751.97;;;8.77;100.00
45357;BME280;31092;51.924;21.448;2024-03-08T11:24:06;100763.97;;;8.93;100.00
45357;BME280;31092;51.924;21.448;2024-03-08T11:26:33;100678.72;;;8.17;100.00
45357;BME280;31092;51.924;21.448;2024-03-08T11:32:09;100637.31;;;8.00;100.00
45357;BME280;31092;51.924;21.448;2024-03-08T11:34:41;100669.41;;;8.11;100.00
45357;BME280;31092;51.924;21.448;2024-03-08T11:37:19;100740.19;;;8.30;100.00
45357;BME280;31092;51.924;21.448;2024-03-08T11:39:54;100707.94;;;8.01;100.00
45357;BME280;31092;51.924;21.448;2024-03-08T11:42:24;100646.47;;;7.68;100.00
45357;BME280;31092;51.924;21.448;2024-03-08T11:44:51;100697.94;;;8.32;100.00
45357;BME280;31092;51.924;21.448;2024-03-08T11:47:17;100644.97;;;8.05;100.00
45357;BME280;31092;51.924;21.448;2024-03-08T11:49:43;100683.41;;;8.34;100.00
45357;BME280;31092;51.924;21.448;2024-03-08T11:52:15;100645.94;;;7.94;100.00
45357;BME280;31092;51.924;21.448;2024-03-08T11:54:41;100701.59;;;8.21;100.00
45357;BME280;31092;51.924;21.448;2024-03-08T11:57:08;100715.47;;;8.26;100.00
45357;BME280;31092;51.924;21.448;2024-03-08T11:59:35;100621.31;;;7.60;100.00
45357;BME280;31092;51.924;21.448;2024-03-08T12:02:06;100594.34;;;7.52;100.00
45357;BME280;31092;51.924;21.448;2024-03-08T12:04:35;100646.34;;;7.80;100.00
45357;BME280;31092;51.924;21.448;2024-03-08T12:07:01;100683.34;;;7.96;100.00
45357;BME280;31092;51.924;21.448;2024-03-08T12:09:28;100689.81;;;7.83;100.00
45357;BME280;31092;51.924;21.448;2024-03-08T12:11:54;100688.78;;;7.75;100.00
45357;BME280;31092;51.924;21.448;2024-03-08T12:14:20;100613.03;;;7.23;100.00
45357;BME280;31092;51.924;21.448;2024-03-08T12:16:46;100708.13;;;7.78;100.00
45357;BME280;31092;51.924;21.448;2024-03-08T12:19:13;100666.19;;;7.67;100.00
45357;BME280;31092;51.924;21.448;2024-03-08T12:21:39;100684.34;;;7.95;100.00
45357;BME280;31092;51.924;21.448;2024-03-08T12:24:16;100678.28;;;8.02;100.00
45357;BME280;31092;51.924;21.448;2024-03-08T12:26:45;100567.56;;;7.71;100.00
45357;BME280;31092;51.924;21.448;2024-03-08T12:29:25;100676.53;;;8.51;100.00
45357;BME280;31092;51.924;21.448;2024-03-08T12:31:58;100684.44;;;8.43;100.00
45357;BME280;31092;51.924;21.448;2024-03-08T12:34:26;100588.34;;;7.98;100.00
45357;BME280;31092;51.924;21.448;2024-03-08T12:36:53;100552.19;;;7.73;100.00
45357;BME280;31092;51.924;21.448;2024-03-08T12:39:20;100616.44;;;8.04;100.00
45357;BME280;31092;51.924;21.448;2024-03-08T12:41:48;100672.50;;;8.36;100.00